Time;durP1;ratioP1;P1;durP2;ratioP2;P2;SDS_P1;SDS_P2;PMS_P1;PMS_P2;Temp;Humidity;BMP_temperature;BMP_pressure;BME280_temperature;BME280_humidity;BME280_pressure;Samples;Min_cycle;Max_cycle;Signal;HPM_P1;HPM_P2
2021/12/26 00:00:14;;;;;;;0.10;0.10;;;;;;;0.43;54.58;101013.22;5041640;28;20080;-77
2021/12/26 00:02:40;;;;;;;0.10;0.10;;;;;;;0.37;54.30;101003.50;5045833;28;20121;-85
2021/12/26 00:05:08;;;;;;;0.10;0.10;;;;;;;0.28;54.11;101005.91;5038578;28;20437;-85
2021/12/26 00:07:35;;;;;;;0.20;0.20;;;;;;;0.18;54.49;101004.78;5035799;28;20065;-79
2021/12/26 00:10:08;;;;;;;0.10;0.10;;;;;;;0.19;54.66;101013.47;5039693;28;20029;-81
2021/12/26 00:12:34;;;;;;;0.63;0.63;;;;;;;0.09;54.74;101015.00;5028204;28;20065;-84
2021/12/26 00:15:01;;;;;;;0.20;0.20;;;;;;;0.08;55.44;101018.44;5020799;28;20030;-83
2021/12/26 00:17:27;;;;;;;0.20;0.20;;;;;;;0.06;54.51;101009.69;5022251;28;20105;-84
2021/12/26 00:19:53;;;;;;;0.20;0.20;;;;;;;0.07;55.42;101009.72;5019311;28;20088;-84
2021/12/26 00:22:19;;;;;;;0.20;0.20;;;;;;;0.06;54.89;101007.94;5021967;28;20096;-84
2021/12/26 00:24:46;;;;;;;0.20;0.20;;;;;;;0.10;55.24;101006.31;5019952;28;20064;-78
2021/12/26 00:27:14;;;;;;;0.20;0.20;;;;;;;0.16;55.27;101011.66;5018749;28;20034;-84
2021/12/26 00:29:40;;;;;;;0.35;0.35;;;;;;;0.17;55.27;101010.84;5020260;28;20029;-85
2021/12/26 00:32:08;;;;;;;0.20;0.20;;;;;;;0.18;54.82;101015.19;5020175;28;20040;-85
2021/12/26 00:34:35;;;;;;;0.10;0.10;;;;;;;0.17;55.30;101012.56;5018582;28;20033;-84
2021/12/26 00:37:05;;;;;;;0.20;0.20;;;;;;;0.15;54.79;101015.16;5021463;28;20038;-85
2021/12/26 00:39:31;;;;;;;0.20;0.20;;;;;;;0.15;55.51;100999.50;5021151;28;20029;-76
2021/12/26 00:41:58;;;;;;;0.20;0.20;;;;;;;0.18;55.13;101004.78;5022889;28;20048;-84
2021/12/26 00:44:24;;;;;;;0.20;0.20;;;;;;;0.20;55.16;101005.72;5019528;28;20117;-84
2021/12/26 00:46:53;;;;;;;0.20;0.20;;;;;;;0.24;54.80;101011.88;5021314;28;20026;-82
2021/12/26 00:49:21;;;;;;;0.20;0.20;;;;;;;0.28;54.95;101008.50;5018022;28;20090;-85
2021/12/26 00:51:48;;;;;;;0.20;0.20;;;;;;;0.28;54.69;101006.75;5022303;28;20052;-83
2021/12/26 00:54:15;;;;;;;0.20;0.20;;;;;;;0.30;54.17;100993.78;5030435;28;20082;-82
2021/12/26 00:56:41;;;;;;;0.30;0.30;;;;;;;0.33;54.05;100999.06;5017175;28;20025;-86
2021/12/26 00:59:08;;;;;;;0.20;0.20;;;;;;;0.26;54.02;101007.56;5022673;28;20481;-83
2021/12/26 01:01:35;;;;;;;0.10;0.10;;;;;;;0.24;54.41;100998.84;5022702;28;20029;-85
2021/12/26 01:04:01;;;;;;;0.15;0.15;;;;;;;0.21;54.66;100999.63;5019781;28;20033;-85
2021/12/26 01:06:28;;;;;;;0.20;0.20;;;;;;;0.14;54.32;100990.78;5021579;28;20042;-84
2021/12/26 01:08:54;;;;;;;0.10;0.10;;;;;;;0.12;54.02;100992.47;5018712;28;20047;-86
2021/12/26 01:11:35;;;;;;;0.10;0.10;;;;;;;0.08;54.69;100993.25;5022518;28;20034;-77
2021/12/26 01:14:05;;;;;;;0.20;0.20;;;;;;;0.07;55.33;100993.22;5021938;28;20141;-81
2021/12/26 01:16:32;;;;;;;0.82;0.82;;;;;;;-0.02;55.03;101006.88;5018531;28;20060;-86
2021/12/26 01:19:06;;;;;;;0.20;0.20;;;;;;;-0.06;54.59;100998.09;5021407;28;20034;-84
2021/12/26 01:21:33;;;;;;;0.30;0.30;;;;;;;-0.10;54.88;100996.28;5017797;28;20040;-81
2021/12/26 01:24:02;;;;;;;0.20;0.20;;;;;;;-0.09;55.65;100999.75;5020526;28;20038;-83
2021/12/26 01:26:30;;;;;;;0.20;0.20;;;;;;;-0.13;55.58;101001.38;5017427;28;20444;-86
2021/12/26 01:28:57;;;;;;;0.20;0.20;;;;;;;-0.15;55.62;100999.59;5024489;28;20037;-84
2021/12/26 01:31:24;;;;;;;0.20;0.20;;;;;;;-0.11;56.05;100996.22;5022032;28;20050;-84
2021/12/26 01:33:54;;;;;;;0.13;0.13;;;;;;;-0.08;55.22;100997.16;5019587;28;20492;-86
2021/12/26 01:36:21;;;;;;;0.30;0.30;;;;;;;-0.12;55.29;101005.75;5019117;28;20161;-86
2021/12/26 01:38:48;;;;;;;0.20;0.20;;;;;;;-0.12;54.93;101004.88;5021233;28;20049;-80
2021/12/26 01:41:20;;;;;;;0.20;0.20;;;;;;;-0.10;54.80;101001.47;5019897;28;20021;-83
2021/12/26 01:43:55;;;;;;;0.20;0.20;;;;;;;-0.18;55.88;100993.44;5021080;28;20087;-83
2021/12/26 01:46:23;;;;;;;0.20;0.20;;;;;;;-0.19;55.55;100990.81;5022732;28;20037;-80
2021/12/26 01:49:00;;;;;;;0.20;0.20;;;;;;;-0.24;55.36;100989.81;5022911;28;20121;-84
2021/12/26 01:51:26;;;;;;;0.13;0.13;;;;;;;-0.27;55.64;100984.53;5019664;28;20038;-80
2021/12/26 01:53:54;;;;;;;0.20;0.20;;;;;;;-0.31;55.50;100987.88;5016184;28;20033;-83
2021/12/26 01:56:23;;;;;;;0.10;0.10;;;;;;;-0.30;55.86;100979.22;5017812;28;20477;-80
2021/12/26 01:58:50;;;;;;;0.15;0.15;;;;;;;-0.31;56.44;100982.66;5022575;28;20056;-80
2021/12/26 02:01:16;;;;;;;0.20;0.20;;;;;;;-0.35;56.33;100984.31;5025326;28;20033;-82
2021/12/26 02:03:43;;;;;;;0.20;0.20;;;;;;;-0.37;56.01;100984.28;5016145;28;20176;-83
2021/12/26 02:06:11;;;;;;;0.20;0.20;;;;;;;-0.39;55.45;100977.25;5020021;28;20041;-77
2021/12/26 02:08:37;;;;;;;0.20;0.20;;;;;;;-0.38;56.16;100972.09;5026126;28;20026;-79
2021/12/26 02:11:04;;;;;;;0.20;0.20;;;;;;;-0.40;56.30;100973.78;5024847;28;20038;-77
2021/12/26 02:13:33;;;;;;;0.10;0.10;;;;;;;-0.43;55.78;100967.63;5020137;28;20026;-80
2021/12/26 02:15:59;;;;;;;0.20;0.20;;;;;;;-0.46;55.71;100963.22;5015571;28;20116;-84
2021/12/26 02:18:26;;;;;;;0.20;0.20;;;;;;;-0.48;55.72;100951.88;5019248;28;20036;-80
2021/12/26 02:21:09;;;;;;;0.20;0.20;;;;;;;-0.47;55.51;100960.53;5022003;28;20452;-84
2021/12/26 02:23:46;;;;;;;0.10;0.10;;;;;;;-0.45;56.42;100957.13;5024489;28;20050;-84
2021/12/26 02:28:55;;;;;;;0.20;0.20;;;;;;;-0.46;55.80;100963.22;5036945;27;2561154;-78
2021/12/26 02:31:21;;;;;;;0.20;0.20;;;;;;;-0.50;55.28;100961.34;5097184;28;20031;-76
2021/12/26 02:33:48;;;;;;;0.20;0.20;;;;;;;-0.50;55.39;100958.75;5083171;28;20045;-77
2021/12/26 02:36:14;;;;;;;0.17;0.17;;;;;;;-0.50;56.29;100967.44;5076176;28;20389;-83
2021/12/26 02:38:41;;;;;;;0.17;0.17;;;;;;;-0.52;56.02;100960.44;5078048;28;20032;-82
2021/12/26 02:41:07;;;;;;;0.17;0.17;;;;;;;-0.47;56.26;100958.84;5080546;28;20126;-84
2021/12/26 02:43:33;;;;;;;0.20;0.20;;;;;;;-0.46;56.03;100958.00;5089146;28;20025;-84
2021/12/26 02:46:05;;;;;;;0.15;0.15;;;;;;;-0.42;56.19;100956.38;5085861;28;20487;-85
2021/12/26 02:48:41;;;;;;;0.20;0.20;;;;;;;-0.37;55.96;100946.97;5082789;28;20504;-85
2021/12/26 02:51:08;;;;;;;0.20;0.20;;;;;;;-0.34;56.62;100947.03;5078559;28;20048;-85
2021/12/26 02:53:35;;;;;;;0.20;0.20;;;;;;;-0.34;56.05;100942.72;5083778;28;20041;-84
2021/12/26 02:56:03;;;;;;;0.20;0.20;;;;;;;-0.31;56.00;100944.50;5080330;28;20438;-84
2021/12/26 02:58:29;;;;;;;0.20;0.20;;;;;;;-0.29;55.46;100945.41;5078238;28;20037;-81
2021/12/26 03:03:54;;;;;;;0.20;0.20;;;;;;;-0.31;55.17;100933.19;5112073;27;20416;-84
2021/12/26 03:06:28;;;;;;;0.20;0.20;;;;;;;-0.27;55.06;100928.13;5113426;28;20463;-84
2021/12/26 03:08:56;;;;;;;0.20;0.20;;;;;;;-0.26;54.66;100928.97;5116947;28;20921;-84
2021/12/26 03:11:26;;;;;;;0.20;0.20;;;;;;;-0.20;55.31;100935.25;5116342;28;20035;-81
2021/12/26 03:13:52;;;;;;;0.20;0.20;;;;;;;-0.14;55.49;100938.84;5116842;28;20031;-84
2021/12/26 03:16:19;;;;;;;0.20;0.20;;;;;;;-0.09;55.44;100937.22;5101839;28;20043;-81
2021/12/26 03:18:45;;;;;;;0.10;0.10;;;;;;;-0.08;54.78;100928.59;5120716;28;20145;-87
2021/12/26 03:21:11;;;;;;;0.20;0.20;;;;;;;-0.10;54.46;100919.84;5119584;27;20056;-85
2021/12/26 03:23:37;;;;;;;0.13;0.13;;;;;;;-0.11;53.64;100903.34;5117361;28;20031;-84
2021/12/26 03:26:06;;;;;;;0.20;0.20;;;;;;;-0.11;54.13;100897.25;5112611;28;20035;-82
2021/12/26 03:28:33;;;;;;;0.20;0.20;;;;;;;-0.11;54.54;100907.66;5109813;28;20497;-84
2021/12/26 03:31:00;;;;;;;0.15;0.15;;;;;;;-0.07;54.53;100910.38;5116305;28;20036;-83
2021/12/26 03:33:27;;;;;;;0.20;0.20;;;;;;;-0.04;55.13;100906.97;5137848;27;20036;-83
2021/12/26 03:35:54;;;;;;;5.47;2.25;;;;;;;-0.05;55.44;100908.72;5136619;28;20031;-79
2021/12/26 03:38:22;;;;;;;0.20;0.20;;;;;;;-0.05;55.01;100913.91;5121874;28;20031;-86
2021/12/26 03:40:49;;;;;;;0.20;0.20;;;;;;;0.01;55.19;100912.31;5098139;28;20102;-86
2021/12/26 03:43:16;;;;;;;0.20;0.20;;;;;;;-0.01;55.12;100910.53;5101893;28;20474;-85
2021/12/26 03:45:53;;;;;;;0.13;0.13;;;;;;;0.02;55.44;100908.84;5123333;28;20161;-86
2021/12/26 03:48:30;;;;;;;0.20;0.20;;;;;;;0.01;55.11;100912.31;5117531;28;20036;-84
2021/12/26 03:51:02;;;;;;;0.20;0.20;;;;;;;-0.01;54.59;100915.75;5120878;28;20039;-82
2021/12/26 03:53:34;;;;;;;0.20;0.20;;;;;;;0.02;55.48;100919.28;5105813;28;20036;-79
2021/12/26 03:56:01;;;;;;;;;;;;;;;0.12;54.32;100913.44;5118608;28;20871;-84
2021/12/26 03:58:27;;;;;;;0.30;0.30;;;;;;;-0.01;55.32;100905.31;5112307;28;20276;-86
2021/12/26 04:00:54;;;;;;;0.20;0.20;;;;;;;0.00;54.66;100911.44;5104423;28;20059;-85
2021/12/26 04:03:21;;;;;;;0.20;0.20;;;;;;;-0.01;55.00;100910.53;5109104;28;20038;-86
2021/12/26 04:05:47;;;;;;;0.20;0.20;;;;;;;-0.03;55.14;100906.13;5108718;28;20024;-85
2021/12/26 04:08:14;;;;;;;0.20;0.20;;;;;;;-0.05;55.04;100906.09;5111483;28;20030;-84
2021/12/26 04:10:41;;;;;;;0.17;0.17;;;;;;;-0.05;55.45;100913.03;5112052;28;20032;-86
2021/12/26 04:13:07;;;;;;;0.20;0.20;;;;;;;-0.08;55.64;100915.56;5106691;28;20036;-86
2021/12/26 04:15:34;;;;;;;0.20;0.20;;;;;;;-0.12;55.97;100905.91;5100936;28;20100;-81
2021/12/26 04:18:01;;;;;;;0.20;0.20;;;;;;;-0.14;55.93;100905.84;5096052;28;20036;-82
2021/12/26 04:20:29;;;;;;;0.10;0.10;;;;;;;-0.14;55.84;100902.38;5099885;28;20032;-86
2021/12/26 04:22:57;;;;;;;0.20;0.20;;;;;;;-0.17;56.29;100900.59;5084968;28;20036;-86
2021/12/26 04:25:23;;;;;;;0.10;0.10;;;;;;;-0.18;56.09;100901.44;5086365;28;20039;-85
2021/12/26 04:27:50;;;;;;;0.20;0.20;;;;;;;-0.19;56.37;100904.88;5085544;28;20214;-82
2021/12/26 04:30:18;;;;;;;0.20;0.20;;;;;;;-0.18;55.63;100906.63;5081601;28;20035;-86
2021/12/26 04:32:44;;;;;;;0.20;0.20;;;;;;;-0.24;55.62;100901.28;5093237;28;20074;-80
2021/12/26 04:35:10;;;;;;;0.20;0.20;;;;;;;-0.26;55.82;100900.34;5092495;28;20035;-83
2021/12/26 04:37:37;;;;;;;0.20;0.20;;;;;;;-0.27;56.06;100901.22;5089731;28;20479;-85
2021/12/26 04:40:07;;;;;;;0.10;0.10;;;;;;;-0.27;55.89;100890.78;5095143;28;20123;-85
2021/12/26 04:42:33;;;;;;;0.20;0.20;;;;;;;-0.27;55.97;100906.41;5086065;28;20033;-81
2021/12/26 04:45:00;;;;;;;0.20;0.20;;;;;;;-0.26;56.41;100897.75;5080479;28;20109;-83
2021/12/26 04:47:26;;;;;;;0.20;0.20;;;;;;;-0.25;56.13;100895.19;5089788;28;20031;-85
2021/12/26 04:49:52;;;;;;;0.20;0.20;;;;;;;-0.27;56.45;100890.78;5095069;28;20032;-84
2021/12/26 04:52:18;;;;;;;0.20;0.20;;;;;;;-0.27;55.84;100886.47;5095619;28;20028;-84
2021/12/26 04:54:44;;;;;;;0.20;0.20;;;;;;;-0.27;56.50;100888.19;5093122;28;20036;-86
2021/12/26 04:57:10;;;;;;;0.20;0.20;;;;;;;-0.30;56.33;100885.50;5093675;28;20610;-86
2021/12/26 04:59:36;;;;;;;0.20;0.20;;;;;;;-0.35;55.50;100881.06;5087468;28;20365;-85
2021/12/26 05:02:03;;;;;;;0.10;0.10;;;;;;;-0.40;55.69;100885.28;5088412;28;20028;-85
2021/12/26 05:04:29;;;;;;;0.13;0.13;;;;;;;-0.39;55.71;100881.81;5083409;28;20083;-84
2021/12/26 05:06:55;;;;;;;0.10;0.10;;;;;;;-0.39;55.23;100881.81;5092141;28;20032;-85
2021/12/26 05:09:21;;;;;;;0.10;0.10;;;;;;;-0.40;55.18;100880.06;5094607;28;20024;-86
2021/12/26 05:11:47;;;;;;;0.20;0.20;;;;;;;-0.40;55.84;100882.69;5087457;28;20085;-83
2021/12/26 05:14:14;;;;;;;0.10;0.10;;;;;;;-0.41;55.38;100872.19;5088284;28;20029;-85
2021/12/26 05:16:41;;;;;;;0.20;0.20;;;;;;;-0.44;54.66;100878.22;5086639;28;20387;-81
2021/12/26 05:19:12;;;;;;;0.20;0.20;;;;;;;-0.51;55.09;100876.31;5078994;28;20373;-84
2021/12/26 05:21:39;;;;;;;0.20;0.20;;;;;;;-0.49;55.86;100874.63;5104138;28;20101;-78
2021/12/26 05:24:05;;;;;;;0.20;0.20;;;;;;;-0.48;55.47;100876.38;5089827;28;20112;-85
2021/12/26 05:26:31;;;;;;;0.20;0.20;;;;;;;-0.49;55.28;100874.63;5085998;28;20457;-85
2021/12/26 05:28:57;;;;;;;0.20;0.20;;;;;;;-0.52;55.30;100874.56;5093751;28;20039;-85
2021/12/26 05:31:23;;;;;;;0.20;0.20;;;;;;;-0.53;55.51;100867.56;5080796;28;20094;-85
2021/12/26 05:33:49;;;;;;;0.13;0.13;;;;;;;-0.57;55.39;100869.22;5090969;28;20113;-83
2021/12/26 05:36:16;;;;;;;0.20;0.20;;;;;;;-0.55;54.96;100870.16;5094154;28;20024;-85
2021/12/26 05:38:42;;;;;;;0.10;0.10;;;;;;;-0.55;55.88;100871.84;5093355;28;20035;-85
2021/12/26 05:41:08;;;;;;;0.20;0.20;;;;;;;-0.52;55.35;100869.34;5095192;28;20035;-85
2021/12/26 05:43:34;;;;;;;0.17;0.17;;;;;;;-0.53;55.50;100867.56;5088988;28;20127;-84
2021/12/26 05:46:01;;;;;;;0.20;0.20;;;;;;;-0.57;55.52;100860.53;5087746;28;20032;-85
2021/12/26 05:48:27;;;;;;;0.20;0.20;;;;;;;-0.56;55.39;100851.88;5089666;28;20547;-85
2021/12/26 05:50:53;;;;;;;0.20;0.20;;;;;;;-0.56;55.05;100854.47;5085223;28;20036;-85
2021/12/26 05:53:20;;;;;;;0.20;0.20;;;;;;;-0.59;55.62;100842.25;5088189;28;20111;-84
2021/12/26 05:55:46;;;;;;;0.30;0.30;;;;;;;-0.59;55.71;100844.00;5088812;28;20036;-86
2021/12/26 05:58:12;;;;;;;0.10;0.10;;;;;;;-0.57;56.01;100844.94;5084948;28;20146;-84
2021/12/26 06:00:39;;;;;;;0.20;0.20;;;;;;;-0.61;55.52;100848.28;5087657;28;20642;-86
2021/12/26 06:03:05;;;;;;;0.47;0.47;;;;;;;-0.61;55.35;100843.97;5088381;28;20436;-84
2021/12/26 06:05:31;;;;;;;0.10;0.10;;;;;;;-0.58;56.20;100850.97;5091349;28;20114;-85
2021/12/26 06:07:57;;;;;;;0.20;0.20;;;;;;;-0.56;56.31;100841.44;5081833;28;20103;-85
2021/12/26 06:10:23;;;;;;;0.20;0.20;;;;;;;-0.62;55.19;100846.50;5079803;28;20117;-85
2021/12/26 06:12:49;;;;;;;0.20;0.20;;;;;;;-0.60;55.86;100842.22;5088524;28;20127;-86
2021/12/26 06:15:15;;;;;;;0.20;0.20;;;;;;;-0.58;56.03;100843.16;5082506;28;20375;-82
2021/12/26 06:17:41;;;;;;;0.10;0.10;;;;;;;-0.60;55.20;100844.84;5088268;28;20032;-86
2021/12/26 06:20:13;;;;;;;0.10;0.10;;;;;;;-0.61;55.96;100853.47;5083382;28;20036;-86
2021/12/26 06:22:42;;;;;;;0.20;0.20;;;;;;;-0.60;56.27;100853.50;5077603;28;20491;-85
2021/12/26 06:25:10;;;;;;;0.20;0.20;;;;;;;-0.64;55.67;100850.81;5080255;28;20043;-86
2021/12/26 06:27:36;;;;;;;0.20;0.20;;;;;;;-0.64;55.94;100854.28;5073846;28;20033;-85
2021/12/26 06:30:04;;;;;;;0.20;0.20;;;;;;;-0.63;55.83;100855.19;5084949;28;20024;-86
2021/12/26 06:32:31;;;;;;;0.20;0.20;;;;;;;-0.66;56.26;100854.25;5090978;28;20073;-85
2021/12/26 06:34:57;;;;;;;0.20;0.20;;;;;;;-0.64;55.46;100843.00;5093139;28;20028;-86
2021/12/26 06:37:23;;;;;;;0.30;0.30;;;;;;;-0.62;56.17;100847.41;5091519;28;20046;-85
2021/12/26 06:39:50;;;;;;;0.20;0.20;;;;;;;-0.63;55.92;100849.97;5082081;28;20059;-86
2021/12/26 06:42:16;;;;;;;0.20;0.20;;;;;;;-0.67;55.57;100849.88;5078598;28;20028;-86
2021/12/26 06:44:42;;;;;;;0.15;0.15;;;;;;;-0.67;56.10;100851.63;5083107;28;20043;-85
2021/12/26 06:47:08;;;;;;;0.20;0.20;;;;;;;-0.63;56.55;100848.25;5085693;28;20403;-86
2021/12/26 06:49:34;;;;;;;0.20;0.20;;;;;;;-0.66;56.39;100849.03;5086383;28;20471;-85
2021/12/26 06:52:00;;;;;;;0.20;0.20;;;;;;;-0.62;56.24;100842.19;5092931;28;20032;-83
2021/12/26 06:54:26;;;;;;;0.30;0.30;;;;;;;-0.64;55.77;100832.59;5081875;28;20055;-86
2021/12/26 06:56:52;;;;;;;0.20;0.20;;;;;;;-0.66;55.77;100841.25;5085701;28;20027;-85
2021/12/26 06:59:19;;;;;;;0.20;0.20;;;;;;;-0.63;55.78;100839.56;5091874;28;20036;-85
2021/12/26 07:01:45;;;;;;;0.20;0.20;;;;;;;-0.71;55.69;100834.13;5088557;28;20053;-85
2021/12/26 07:04:11;;;;;;;0.20;0.20;;;;;;;-0.72;55.86;100838.47;5085452;28;20514;-85
2021/12/26 07:06:38;;;;;;;0.20;0.20;;;;;;;-0.72;56.59;100833.28;5089115;28;20032;-86
2021/12/26 07:09:06;;;;;;;0.20;0.20;;;;;;;-0.75;56.08;100835.78;5089132;28;20092;-85
2021/12/26 07:11:32;;;;;;;0.10;0.10;;;;;;;-0.76;56.10;100834.03;5084337;28;20032;-82
2021/12/26 07:13:58;;;;;;;0.15;0.15;;;;;;;-0.77;55.99;100834.88;5086649;28;20075;-84
2021/12/26 07:16:25;;;;;;;0.20;0.20;;;;;;;-0.76;56.36;100833.13;5084593;28;20036;-84
2021/12/26 07:18:52;;;;;;;0.20;0.20;;;;;;;-0.78;56.66;100830.50;5096530;28;20024;-86
2021/12/26 07:21:19;;;;;;;0.17;0.17;;;;;;;-0.75;56.71;100830.56;5105367;28;20332;-78
2021/12/26 07:23:45;;;;;;;0.20;0.20;;;;;;;-0.77;56.49;100837.47;5106346;28;20087;-79
2021/12/26 07:26:11;;;;;;;0.20;0.20;;;;;;;-0.80;56.80;100832.19;5097582;28;20027;-80
2021/12/26 07:28:37;;;;;;;0.10;0.10;;;;;;;-0.79;56.77;100830.47;5083663;28;20080;-85
2021/12/26 07:31:04;;;;;;;0.20;0.20;;;;;;;-0.81;56.59;100830.41;5089550;28;20035;-85
2021/12/26 07:33:30;;;;;;;0.20;0.20;;;;;;;-0.82;56.48;100828.69;5091289;28;20100;-82
2021/12/26 07:35:56;;;;;;;0.10;0.10;;;;;;;-0.82;56.91;100833.88;5079683;28;20025;-84
2021/12/26 07:38:22;;;;;;;0.20;0.20;;;;;;;-0.87;57.40;100831.16;5087266;28;20475;-85
2021/12/26 07:40:48;;;;;;;0.20;0.20;;;;;;;-0.84;57.19;100835.53;5085968;28;20028;-86
2021/12/26 07:43:15;;;;;;;0.20;0.20;;;;;;;-0.81;57.02;100835.63;5082210;28;20036;-86
2021/12/26 07:45:41;;;;;;;0.20;0.20;;;;;;;-0.83;57.13;100838.19;5091222;28;20030;-84
2021/12/26 07:48:09;;;;;;;0.15;0.15;;;;;;;-0.81;56.98;100838.22;5090526;28;20084;-84
2021/12/26 07:50:43;;;;;;;0.17;0.17;;;;;;;-0.76;56.75;100835.75;5069289;28;20036;-86
2021/12/26 07:53:11;;;;;;;0.40;0.40;;;;;;;-0.80;57.21;100836.50;5090912;28;20047;-85
2021/12/26 07:55:39;;;;;;;0.20;0.20;;;;;;;-0.82;57.33;100839.09;5095753;28;20028;-85
2021/12/26 07:58:06;;;;;;;0.20;0.20;;;;;;;-0.80;57.34;100842.59;5094694;28;20097;-86
2021/12/26 08:00:33;;;;;;;0.20;0.20;;;;;;;-0.79;57.50;100844.34;5094672;28;20068;-83
2021/12/26 08:02:59;;;;;;;0.20;0.20;;;;;;;-0.77;57.08;100850.47;5093095;28;20032;-82
2021/12/26 08:05:26;;;;;;;0.20;0.20;;;;;;;-0.74;57.83;100842.75;5085795;28;20032;-84
2021/12/26 08:07:53;;;;;;;0.20;0.20;;;;;;;-0.74;57.34;100847.09;5096436;28;20032;-84
2021/12/26 08:10:19;;;;;;;0.10;0.10;;;;;;;-0.72;57.61;100841.06;5079794;28;20032;-83
2021/12/26 08:12:45;;;;;;;0.20;0.20;;;;;;;-0.71;57.77;100836.75;5103113;28;20035;-81
2021/12/26 08:15:12;;;;;;;0.20;0.20;;;;;;;-0.69;57.60;100838.53;5088711;28;20035;-85
2021/12/26 08:17:40;;;;;;;0.20;0.20;;;;;;;-0.66;57.89;100838.63;5091082;28;20028;-85
2021/12/26 08:20:07;;;;;;;0.20;0.20;;;;;;;-0.61;57.49;100837.84;5085413;28;20036;-85
2021/12/26 08:22:33;;;;;;;0.20;0.20;;;;;;;-0.58;57.50;100845.75;5090234;28;20040;-86
2021/12/26 08:25:00;;;;;;;0.20;0.20;;;;;;;-0.52;57.09;100845.91;5094157;28;20131;-86
2021/12/26 08:27:26;;;;;;;0.15;0.15;;;;;;;-0.52;57.96;100838.13;5081515;28;20032;-86
2021/12/26 08:29:52;;;;;;;0.20;0.20;;;;;;;-0.44;57.30;100825.28;5080480;28;20458;-86
2021/12/26 08:32:19;;;;;;;0.20;0.20;;;;;;;-0.41;57.02;100835.75;5085816;28;20024;-85
2021/12/26 08:34:46;;;;;;;0.10;0.10;;;;;;;-0.38;56.94;100841.91;5089346;28;20024;-85
2021/12/26 08:37:13;;;;;;;0.20;0.20;;;;;;;-0.35;57.35;100842.00;5084689;28;20475;-83
2021/12/26 08:39:42;;;;;;;0.20;0.20;;;;;;;-0.33;56.75;100845.50;5093699;28;20028;-85
2021/12/26 08:42:10;;;;;;;0.20;0.20;;;;;;;-0.30;56.86;100836.03;5093510;28;20504;-85
2021/12/26 08:44:37;;;;;;;0.20;0.20;;;;;;;-0.29;56.61;100835.19;5083825;28;20028;-85
2021/12/26 08:47:05;;;;;;;0.20;0.20;;;;;;;-0.27;56.26;100836.13;5085221;28;20490;-84
2021/12/26 08:49:31;;;;;;;0.55;0.55;;;;;;;-0.22;56.37;100837.97;5080829;28;20024;-84
2021/12/26 08:51:58;;;;;;;0.20;0.20;;;;;;;-0.18;56.51;100828.50;5083187;28;20375;-83
2021/12/26 08:54:26;;;;;;;0.20;0.20;;;;;;;-0.12;56.08;100833.00;5096227;28;20066;-84
2021/12/26 08:56:53;;;;;;;0.10;0.10;;;;;;;-0.07;56.48;100832.25;5087216;28;20036;-85
2021/12/26 08:59:20;;;;;;;0.10;0.10;;;;;;;-0.03;56.06;100834.06;5091208;28;20028;-84
2021/12/26 09:01:46;;;;;;;0.10;0.10;;;;;;;0.01;56.45;100839.38;5095670;28;20068;-85
2021/12/26 09:04:13;;;;;;;0.20;0.20;;;;;;;0.08;56.54;100836.94;5096918;28;20088;-86
2021/12/26 09:06:39;;;;;;;0.20;0.20;;;;;;;0.15;56.06;100835.34;5095397;28;20043;-83
2021/12/26 09:09:06;;;;;;;0.10;0.10;;;;;;;0.20;56.62;100843.25;5089500;28;20032;-85
2021/12/26 09:11:33;;;;;;;0.20;0.20;;;;;;;0.27;56.30;100837.34;5092523;28;20044;-82
2021/12/26 09:13:59;;;;;;;0.20;0.20;;;;;;;0.35;56.86;100840.09;5081226;28;20043;-86
2021/12/26 09:16:33;;;;;;;0.20;0.20;;;;;;;0.40;56.25;100828.06;5096089;28;20398;-85
2021/12/26 09:19:00;;;;;;;0.10;0.10;;;;;;;0.45;56.14;100835.13;5092255;28;20047;-83
2021/12/26 09:21:26;;;;;;;0.20;0.20;;;;;;;0.50;55.53;100840.44;5090006;28;20037;-84
2021/12/26 09:23:52;;;;;;;0.10;0.10;;;;;;;0.57;55.60;100838.84;5087531;28;20471;-85
2021/12/26 09:26:18;;;;;;;0.20;0.20;;;;;;;0.66;56.13;100832.94;5093910;28;20031;-85
2021/12/26 09:28:44;;;;;;;0.10;0.10;;;;;;;0.71;55.56;100844.34;5093194;28;20020;-85
2021/12/26 09:31:10;;;;;;;0.17;0.17;;;;;;;0.79;55.02;100840.16;5080399;28;20112;-85
2021/12/26 09:33:37;;;;;;;0.10;0.10;;;;;;;0.84;55.38;100835.91;5091901;28;20043;-86
2021/12/26 09:36:03;;;;;;;0.20;0.20;;;;;;;0.89;55.24;100836.88;5085642;28;20021;-85
2021/12/26 09:38:29;;;;;;;0.20;0.20;;;;;;;0.95;54.96;100839.59;5083599;28;20041;-85
2021/12/26 09:40:57;;;;;;;0.20;0.20;;;;;;;1.05;55.59;100830.22;5082087;28;20024;-82
2021/12/26 09:43:23;;;;;;;0.22;0.22;;;;;;;1.12;55.23;100839.03;5091070;28;20028;-86
2021/12/26 09:45:50;;;;;;;0.10;0.10;;;;;;;1.19;54.18;100838.31;5092259;28;20094;-87
2021/12/26 09:48:16;;;;;;;0.20;0.20;;;;;;;1.21;54.35;100841.84;5094833;28;20426;-82
2021/12/26 09:50:43;;;;;;;0.20;0.20;;;;;;;1.29;54.76;100840.22;5085646;28;20077;-82
2021/12/26 09:53:09;;;;;;;0.10;0.10;;;;;;;1.33;54.61;100829.84;5079660;28;20025;-82
2021/12/26 09:55:35;;;;;;;0.20;0.20;;;;;;;1.42;54.49;100832.63;5081738;28;20028;-82
2021/12/26 09:58:01;;;;;;;0.13;0.13;;;;;;;1.53;55.06;100818.00;5088845;28;20111;-86
2021/12/26 10:09:02;;;;;;;0.90;0.90;;;;;;;2.18;53.99;100800.72;5045382;28;20416;-82
2021/12/26 10:11:33;;;;;;;0.52;0.52;;;;;;;2.22;53.95;100789.44;5043192;28;20108;-81
2021/12/26 10:14:02;;;;;;;0.20;0.20;;;;;;;2.28;53.65;100791.25;5033523;28;20040;-82
2021/12/26 10:16:31;;;;;;;0.15;0.15;;;;;;;2.38;54.18;100780.06;5039680;28;20037;-81
2021/12/26 10:18:58;;;;;;;0.20;0.20;;;;;;;2.42;53.49;100781.84;5033681;28;20029;-81
2021/12/26 10:24:16;;;;;;;0.40;0.40;;;;;;;2.56;53.68;100776.78;5100364;27;20910;-82
2021/12/26 10:26:47;;;;;;;0.20;0.20;;;;;;;2.62;54.25;100781.22;5079456;28;20031;-77
2021/12/26 10:29:20;;;;;;;0.20;0.20;;;;;;;2.70;53.49;100771.69;5081037;28;20029;-76
2021/12/26 10:31:50;;;;;;;0.20;0.20;;;;;;;2.72;53.53;100775.22;5073939;28;20024;-82
2021/12/26 10:34:25;;;;;;;0.20;0.20;;;;;;;2.76;52.55;100770.91;5080058;28;20032;-81
2021/12/26 10:36:54;;;;;;;0.10;0.10;;;;;;;2.81;53.61;100760.50;5079609;28;20032;-78
2021/12/26 10:39:24;;;;;;;0.17;0.17;;;;;;;2.88;54.29;100765.78;5077249;28;20028;-82
2021/12/26 10:41:56;;;;;;;0.20;0.20;;;;;;;2.96;54.03;100759.75;5082209;28;20032;-82
2021/12/26 10:44:26;;;;;;;0.20;0.20;;;;;;;2.96;53.27;100747.53;5080707;28;20051;-82
2021/12/26 10:46:56;;;;;;;0.10;0.10;;;;;;;2.99;53.55;100742.34;5078330;28;20392;-78
2021/12/26 10:49:30;;;;;;;0.20;0.20;;;;;;;3.07;54.48;100735.44;5075576;28;20384;-77
2021/12/26 10:51:59;;;;;;;0.10;0.10;;;;;;;3.12;53.91;100732.84;5077705;28;20052;-77
2021/12/26 10:54:30;;;;;;;0.20;0.20;;;;;;;3.19;53.66;100737.28;5076548;28;20033;-81
2021/12/26 10:57:19;;;;;;;0.20;0.20;;;;;;;3.29;53.45;100729.50;5074244;28;20048;-83
2021/12/26 10:59:47;;;;;;;1.00;0.63;;;;;;;3.28;53.18;100738.22;5075262;28;20032;-82
2021/12/26 11:02:31;;;;;;;0.10;0.10;;;;;;;3.43;53.83;100730.50;5078934;28;20627;-81
2021/12/26 11:05:04;;;;;;;0.10;0.10;;;;;;;3.37;53.23;100726.06;5073479;28;20036;-81
2021/12/26 11:07:40;;;;;;;0.20;0.20;;;;;;;3.45;53.89;100726.16;5073461;28;20046;-81
2021/12/26 11:10:12;;;;;;;0.20;0.20;;;;;;;3.44;54.50;100719.16;5083134;28;20129;-82
2021/12/26 11:12:41;;;;;;;0.20;0.20;;;;;;;3.48;53.95;100715.69;5081284;28;20033;-82
2021/12/26 11:15:09;;;;;;;0.20;0.20;;;;;;;3.55;54.17;100712.25;5078714;28;20089;-82
2021/12/26 11:17:39;;;;;;;0.10;0.10;;;;;;;3.59;54.21;100699.16;5082540;28;20058;-81
2021/12/26 11:20:06;;;;;;;0.10;0.10;;;;;;;3.61;54.20;100705.28;5082038;28;20020;-79
2021/12/26 11:22:32;;;;;;;0.10;0.10;;;;;;;3.60;53.40;100714.00;5084298;28;20036;-83
2021/12/26 11:24:58;;;;;;;0.10;0.10;;;;;;;3.70;53.11;100702.72;5074752;28;20033;-82
2021/12/26 11:27:25;;;;;;;0.10;0.10;;;;;;;3.73;53.56;100702.75;5079594;28;20060;-82
2021/12/26 11:29:53;;;;;;;0.10;0.10;;;;;;;3.76;53.68;100710.63;5073687;28;20116;-83
2021/12/26 11:32:22;;;;;;;0.20;0.20;;;;;;;3.79;53.49;100705.41;5072759;28;20035;-83
2021/12/26 11:34:49;;;;;;;1.98;1.88;;;;;;;3.88;53.61;100705.44;5064755;28;20021;-83
2021/12/26 11:37:17;;;;;;;0.10;0.10;;;;;;;3.92;54.44;100706.34;5060126;28;20024;-82
2021/12/26 11:39:45;;;;;;;0.10;0.10;;;;;;;3.92;54.05;100711.56;5066959;28;20063;-80
2021/12/26 11:42:44;;;;;;;0.20;0.20;;;;;;;3.98;53.38;100706.38;5057652;28;20025;-79
2021/12/26 11:51:13;;;;;;;1.10;1.05;;;;;;;4.01;52.97;100687.16;5037963;27;1246702;-85
2021/12/26 11:54:10;;;;;;;0.20;0.20;;;;;;;4.07;53.86;100689.81;5068844;28;20029;-81